Time;durP1;ratioP1;P1;durP2;ratioP2;P2;SDS_P1;SDS_P2;PMS_P1;PMS_P2;Temp;Humidity;BMP_temperature;BMP_pressure;BME280_temperature;BME280_humidity;BME280_pressure;Samples;Min_cycle;Max_cycle;Signal;HPM_P1;HPM_P2
2024/04/05 00:01:30;;;;;;;13.27;2.08;;;;;;;11.77;100.00;100669.13;6173433;28;20467;-77
2024/04/05 00:04:31;;;;;;;13.55;2.22;;;;;;;11.80;100.00;100668.91;6167041;28;20050;-76
2024/04/05 00:07:33;;;;;;;9.93;2.95;;;;;;;11.85;100.00;100682.69;6177714;28;20090;-77
2024/04/05 00:10:35;;;;;;;17.33;2.85;;;;;;;11.89;100.00;100677.16;6177646;28;20047;-76
2024/04/05 00:13:36;;;;;;;16.45;2.35;;;;;;;11.86;100.00;100679.97;6177528;28;20043;-77
2024/04/05 00:16:37;;;;;;;11.48;2.22;;;;;;;11.90;100.00;100678.03;6177761;28;20043;-76
2024/04/05 00:19:38;;;;;;;11.70;2.28;;;;;;;11.89;100.00;100678.94;6155746;28;20476;-77
2024/04/05 00:22:40;;;;;;;13.00;2.15;;;;;;;11.82;100.00;100686.38;6153631;28;20138;-78
2024/04/05 00:25:42;;;;;;;12.80;1.88;;;;;;;11.89;100.00;100686.84;6153645;28;20437;-76
2024/04/05 00:28:42;;;;;;;14.68;2.08;;;;;;;11.87;100.00;100672.94;6153833;28;20054;-77
2024/04/05 00:31:44;;;;;;;13.93;2.00;;;;;;;11.81;100.00;100683.78;6153372;28;20059;-77
2024/04/05 00:34:44;;;;;;;12.73;2.42;;;;;;;11.85;100.00;100688.78;6153218;28;20051;-78
2024/04/05 00:37:47;;;;;;;16.02;2.22;;;;;;;11.85;100.00;100685.31;6153440;28;20078;-77
2024/04/05 00:40:47;;;;;;;11.93;3.25;;;;;;;11.85;100.00;100687.94;6153108;28;20066;-77
2024/04/05 00:43:48;;;;;;;13.30;2.38;;;;;;;11.83;100.00;100685.41;6153179;28;20047;-77
2024/04/05 00:46:49;;;;;;;16.70;2.75;;;;;;;11.82;100.00;100682.84;6153155;28;20408;-76
2024/04/05 00:49:50;;;;;;;18.13;3.53;;;;;;;11.79;100.00;100683.03;6181019;28;20085;-76
2024/04/05 00:52:52;;;;;;;9.30;1.55;;;;;;;11.77;100.00;100684.91;6181998;28;20055;-79
2024/04/05 00:55:54;;;;;;;16.48;1.92;;;;;;;11.68;100.00;100686.31;6181886;28;20069;-76
2024/04/05 00:58:55;;;;;;;8.85;1.98;;;;;;;11.75;100.00;100686.78;6182041;28;20047;-78
2024/04/05 01:01:56;;;;;;;9.73;2.00;;;;;;;11.75;100.00;100687.63;6181613;28;20057;-75
2024/04/05 01:04:56;;;;;;;16.23;2.42;;;;;;;11.70;100.00;100681.78;6181948;28;20051;-76
2024/04/05 01:07:59;;;;;;;11.23;2.95;;;;;;;11.67;100.00;100682.84;6181575;28;20142;-76
2024/04/05 01:11:00;;;;;;;17.90;2.85;;;;;;;11.54;100.00;100684.47;6181691;28;20337;-77
2024/04/05 01:14:01;;;;;;;10.35;2.00;;;;;;;11.46;100.00;100686.72;6181798;28;20059;-76
2024/04/05 01:17:01;;;;;;;11.40;2.50;;;;;;;11.41;100.00;100686.13;6181839;28;20058;-76
2024/04/05 01:20:04;;;;;;;20.30;2.45;;;;;;;11.33;100.00;100677.81;6181480;28;20050;-76
2024/04/05 01:23:07;;;;;;;6.93;1.70;;;;;;;11.30;100.00;100676.19;6181505;28;20051;-76
2024/04/05 01:26:10;;;;;;;22.08;2.55;;;;;;;11.31;100.00;100682.31;6181330;28;20059;-76
2024/04/05 01:29:10;;;;;;;22.60;3.40;;;;;;;11.25;100.00;100683.50;6181144;28;20072;-76
2024/04/05 01:32:12;;;;;;;18.42;2.35;;;;;;;11.24;100.00;100683.63;6181640;28;20047;-76
2024/04/05 01:35:12;;;;;;;18.77;2.22;;;;;;;11.25;100.00;100680.88;6180955;28;20444;-76
2024/04/05 01:38:13;;;;;;;23.58;2.92;;;;;;;11.31;100.00;100677.03;6181315;28;20054;-76
2024/04/05 01:41:20;;;;;;;31.50;3.83;;;;;;;11.30;100.00;100680.63;6180985;28;20062;-76
2024/04/05 01:44:22;;;;;;;26.58;3.55;;;;;;;11.30;100.00;100689.34;6180968;28;20050;-77
2024/04/05 01:47:22;;;;;;;13.35;2.35;;;;;;;11.26;100.00;100684.34;6180711;28;20053;-77
2024/04/05 01:50:23;;;;;;;13.15;2.30;;;;;;;11.26;100.00;100681.72;6180820;28;20074;-77
2024/04/05 01:53:25;;;;;;;11.60;2.33;;;;;;;11.20;100.00;100693.47;6180755;28;20439;-75
2024/04/05 01:56:26;;;;;;;15.57;2.17;;;;;;;11.14;100.00;100688.56;6181156;28;20047;-76
2024/04/05 01:59:28;;;;;;;11.70;2.13;;;;;;;11.14;100.00;100685.91;6179321;28;20039;-76
2024/04/05 02:02:28;;;;;;;16.38;2.72;;;;;;;11.15;100.00;100690.25;6180304;28;20051;-76
2024/04/05 02:05:29;;;;;;;15.50;2.40;;;;;;;11.13;100.00;100685.06;6180638;28;20356;-77
2024/04/05 02:08:30;;;;;;;13.95;2.22;;;;;;;11.06;100.00;100686.34;6180360;28;20385;-77
2024/04/05 02:11:32;;;;;;;9.32;2.03;;;;;;;11.03;100.00;100688.28;6180228;28;20081;-77
2024/04/05 02:14:34;;;;;;;14.73;2.10;;;;;;;11.00;100.00;100688.47;6180123;28;20077;-77
2024/04/05 02:17:35;;;;;;;9.73;2.30;;;;;;;11.03;100.00;100683.88;6180488;28;20552;-77
2024/04/05 02:20:36;;;;;;;15.02;2.25;;;;;;;11.00;100.00;100680.59;6180049;28;20054;-77
2024/04/05 02:23:37;;;;;;;15.52;3.28;;;;;;;10.95;100.00;100680.84;6180191;28;20054;-77
2024/04/05 02:26:39;;;;;;;14.38;1.65;;;;;;;11.02;100.00;100684.81;6180069;28;20054;-77
2024/04/05 02:29:40;;;;;;;10.55;2.05;;;;;;;10.97;100.00;100673.72;6180166;28;20043;-77
2024/04/05 02:32:41;;;;;;;10.35;2.33;;;;;;;10.98;100.00;100677.19;6165132;28;20051;-77
2024/04/05 02:35:41;;;;;;;10.45;2.35;;;;;;;11.09;100.00;100680.91;6177791;28;20062;-77
2024/04/05 02:38:44;;;;;;;13.68;1.88;;;;;;;11.14;100.00;100686.78;6180097;28;20428;-77
2024/04/05 02:41:48;;;;;;;22.50;2.65;;;;;;;11.21;100.00;100681.16;6173682;28;20090;-76
2024/04/05 02:44:48;;;;;;;11.65;1.70;;;;;;;11.22;100.00;100683.72;6179492;28;20073;-76
2024/04/05 02:47:49;;;;;;;16.83;1.92;;;;;;;11.13;100.00;100692.13;6172439;28;20055;-76
2024/04/05 02:50:52;;;;;;;14.85;1.92;;;;;;;11.21;100.00;100689.88;6179207;28;20351;-76
2024/04/05 02:53:53;;;;;;;16.52;2.47;;;;;;;11.21;100.00;100695.16;6179566;28;20518;-76
2024/04/05 02:56:56;;;;;;;10.52;1.42;;;;;;;11.25;100.00;100699.28;6166852;28;20055;-76
2024/04/05 02:59:56;;;;;;;14.80;3.58;;;;;;;11.30;100.00;100710.41;6172760;28;20573;-76
2024/04/05 03:02:58;;;;;;;13.55;2.33;;;;;;;11.38;100.00;100705.56;6171064;28;20050;-77
2024/04/05 03:05:58;;;;;;;8.27;1.88;;;;;;;11.40;100.00;100708.13;6172568;28;20058;-77
2024/04/05 03:08:59;;;;;;;15.73;2.10;;;;;;;11.39;100.00;100712.50;6171821;28;20420;-77
2024/04/05 03:12:02;;;;;;;20.67;2.83;;;;;;;11.41;100.00;100712.44;6178616;28;20053;-77
2024/04/05 03:15:03;;;;;;;13.10;2.00;;;;;;;11.37;100.00;100709.13;6178897;28;20058;-77
2024/04/05 03:18:05;;;;;;;16.00;2.53;;;;;;;11.38;100.00;100721.34;6179019;28;20055;-77
2024/04/05 03:21:05;;;;;;;22.70;2.28;;;;;;;11.38;100.00;100723.97;6178848;28;20051;-77
2024/04/05 03:24:07;;;;;;;23.27;2.95;;;;;;;11.40;100.00;100727.38;6171397;28;20455;-77
2024/04/05 03:27:08;;;;;;;13.05;2.35;;;;;;;11.36;100.00;100731.13;6172182;28;20051;-77
2024/04/05 03:30:10;;;;;;;18.15;2.25;;;;;;;11.32;100.00;100729.59;6178504;28;20325;-77
2024/04/05 03:33:11;;;;;;;9.32;2.03;;;;;;;11.37;100.00;100729.34;6178415;28;20051;-77
2024/04/05 03:36:12;;;;;;;16.35;2.22;;;;;;;11.35;100.00;100728.56;6178399;28;20352;-78
2024/04/05 03:39:14;;;;;;;11.15;1.50;;;;;;;11.28;100.00;100721.97;6178555;28;20043;-77
2024/04/05 03:42:17;;;;;;;16.52;2.55;;;;;;;11.25;100.00;100730.03;6166568;28;20359;-77
2024/04/05 03:45:18;;;;;;;12.02;2.20;;;;;;;11.22;100.00;100727.56;6156391;28;20466;-77
2024/04/05 03:48:19;;;;;;;13.30;1.83;;;;;;;11.19;100.00;100728.59;6178205;28;20086;-78
2024/04/05 03:51:19;;;;;;;22.20;3.25;;;;;;;11.24;100.00;100736.22;6178109;28;20038;-77
2024/04/05 03:54:21;;;;;;;22.20;2.78;;;;;;;11.22;100.00;100736.31;6178008;28;20047;-77
2024/04/05 03:57:22;;;;;;;16.27;1.92;;;;;;;11.20;100.00;100739.97;6177745;28;20043;-77
2024/04/05 04:00:24;;;;;;;15.20;2.15;;;;;;;11.14;100.00;100736.75;6167796;28;20043;-77
2024/04/05 04:03:25;;;;;;;14.80;2.35;;;;;;;11.21;100.00;100739.88;6171564;28;20082;-77
2024/04/05 04:06:26;;;;;;;11.00;1.85;;;;;;;11.20;100.00;100747.84;6161438;28;20051;-77
2024/04/05 04:09:27;;;;;;;8.02;1.63;;;;;;;11.18;100.00;100740.06;6177684;28;20054;-77
2024/04/05 04:12:30;;;;;;;12.93;1.70;;;;;;;11.20;100.00;100746.06;6177668;28;20042;-77
2024/04/05 04:15:30;;;;;;;8.45;1.90;;;;;;;11.16;100.00;100745.38;6177388;28;20364;-77
2024/04/05 04:18:32;;;;;;;19.45;2.28;;;;;;;11.15;100.00;100743.69;6177690;28;20051;-77
2024/04/05 04:21:32;;;;;;;9.57;2.50;;;;;;;11.12;100.00;100741.22;6177426;28;20324;-77
2024/04/05 04:24:34;;;;;;;9.30;1.55;;;;;;;11.14;100.00;100739.38;6176830;28;20047;-77
2024/04/05 04:27:36;;;;;;;13.25;3.28;;;;;;;11.18;100.00;100740.91;6177411;28;20047;-77
2024/04/05 04:30:37;;;;;;;11.48;2.33;;;;;;;11.21;100.00;100744.28;6177074;28;20049;-77
2024/04/05 04:33:37;;;;;;;14.38;2.53;;;;;;;11.21;100.00;100739.88;6177436;28;20050;-77
2024/04/05 04:36:39;;;;;;;8.77;1.95;;;;;;;11.32;100.00;100748.00;6177316;28;20101;-77
2024/04/05 04:39:40;;;;;;;13.05;2.00;;;;;;;11.32;100.00;100752.44;6177452;28;20053;-77
2024/04/05 04:42:43;;;;;;;15.82;2.15;;;;;;;11.30;100.00;100756.91;6177013;28;20054;-77
2024/04/05 04:45:43;;;;;;;16.83;2.20;;;;;;;11.33;100.00;100760.22;6177094;28;20136;-76
2024/04/05 04:48:44;;;;;;;15.43;3.10;;;;;;;11.34;100.00;100748.75;6177127;28;20055;-75
2024/04/05 04:51:45;;;;;;;10.50;2.72;;;;;;;11.36;100.00;100754.81;6177174;28;20051;-76
2024/04/05 04:54:46;;;;;;;11.30;1.95;;;;;;;11.36;100.00;100753.97;6177151;28;20360;-76
2024/04/05 04:57:49;;;;;;;20.40;2.50;;;;;;;11.41;100.00;100751.91;6176927;28;20051;-75
2024/04/05 05:00:49;;;;;;;8.70;1.65;;;;;;;11.44;100.00;100751.72;6176920;28;20058;-75
2024/04/05 05:03:52;;;;;;;8.75;1.83;;;;;;;11.43;100.00;100757.91;6176804;28;20047;-75
2024/04/05 05:06:52;;;;;;;7.53;2.05;;;;;;;11.49;100.00;100759.34;6177075;28;20054;-76
2024/04/05 05:09:54;;;;;;;18.45;1.90;;;;;;;11.48;100.00;100760.28;6177042;28;20050;-76
2024/04/05 05:12:55;;;;;;;11.73;2.33;;;;;;;11.47;100.00;100769.13;6177108;28;20058;-76
2024/04/05 05:15:57;;;;;;;12.35;2.17;;;;;;;11.45;100.00;100765.75;6157558;28;20456;-76
2024/04/05 05:18:57;;;;;;;20.13;2.20;;;;;;;11.49;100.00;100770.75;6153053;28;20047;-76
2024/04/05 05:21:58;;;;;;;12.50;2.00;;;;;;;11.50;100.00;100772.44;6152833;28;20086;-76
2024/04/05 05:24:59;;;;;;;11.32;1.73;;;;;;;11.55;100.00;100773.03;6152691;28;20471;-76
2024/04/05 05:28:02;;;;;;;11.40;1.83;;;;;;;11.58;100.00;100787.78;6144937;29;20079;-76
2024/04/05 05:31:02;;;;;;;14.60;2.17;;;;;;;11.61;100.00;100782.34;6152564;28;20054;-76
2024/04/05 05:34:03;;;;;;;11.13;3.08;;;;;;;11.64;100.00;100780.41;6153897;28;20047;-75
2024/04/05 05:37:04;;;;;;;16.20;1.88;;;;;;;11.73;100.00;100784.28;6157218;28;20054;-75
2024/04/05 05:40:07;;;;;;;11.90;2.42;;;;;;;11.81;100.00;100782.06;6157104;28;20375;-76
2024/04/05 05:43:09;;;;;;;15.70;2.28;;;;;;;11.79;100.00;100794.44;6156924;28;20138;-76
2024/04/05 05:46:10;;;;;;;18.98;1.88;;;;;;;11.79;100.00;100790.97;6156684;28;20048;-76
2024/04/05 05:49:12;;;;;;;16.15;2.20;;;;;;;11.81;100.00;100789.09;6156803;28;20054;-76
2024/04/05 05:52:13;;;;;;;10.48;1.63;;;;;;;11.75;100.00;100779.78;6156826;28;20051;-76
2024/04/05 05:55:15;;;;;;;6.32;2.20;;;;;;;11.74;100.00;100778.06;6156550;28;20329;-75
2024/04/05 05:58:16;;;;;;;11.48;2.25;;;;;;;11.79;100.00;100778.66;6156621;28;20062;-76
2024/04/05 06:01:18;;;;;;;9.48;2.65;;;;;;;11.82;100.00;100777.66;6156600;28;20101;-76
2024/04/05 06:04:18;;;;;;;12.00;2.08;;;;;;;11.84;100.00;100775.78;6156513;28;20062;-76
2024/04/05 06:07:19;;;;;;;4.95;1.50;;;;;;;11.86;100.00;100777.41;6156618;28;20055;-76
2024/04/05 06:10:20;;;;;;;12.25;2.13;;;;;;;11.88;100.00;100783.41;6156154;28;20047;-76
2024/04/05 06:13:24;;;;;;;7.82;1.95;;;;;;;11.92;100.00;100784.94;6156581;28;20071;-76
2024/04/05 06:16:24;;;;;;;24.88;2.03;;;;;;;12.02;100.00;100787.88;6156197;28;20122;-77
2024/04/05 06:19:25;;;;;;;6.95;1.30;;;;;;;12.11;100.00;100787.34;6156516;28;20051;-78
2024/04/05 06:22:27;;;;;;;14.05;1.90;;;;;;;12.19;100.00;100784.25;6159762;28;20444;-75
2024/04/05 06:25:28;;;;;;;10.88;1.52;;;;;;;12.28;100.00;100793.41;6180756;28;20131;-75
2024/04/05 06:28:30;;;;;;;12.73;2.03;;;;;;;12.29;100.00;100803.00;6176717;28;20063;-77
2024/04/05 06:31:31;;;;;;;8.75;1.23;;;;;;;12.31;100.00;100795.84;6155744;28;20047;-77
2024/04/05 06:34:38;;;;;;;10.73;1.33;;;;;;;12.38;100.00;100797.19;6156044;28;20070;-75
2024/04/05 06:37:39;;;;;;;10.68;1.33;;;;;;;12.49;100.00;100801.78;6155854;28;20102;-76
2024/04/05 06:40:39;;;;;;;4.30;1.30;;;;;;;12.49;100.00;100813.22;6155842;28;20054;-77
2024/04/05 06:43:42;;;;;;;10.32;2.22;;;;;;;12.55;100.00;100806.72;6155650;28;20055;-76
2024/04/05 06:46:44;;;;;;;8.80;2.22;;;;;;;12.58;100.00;100802.13;6154936;28;20051;-76
2024/04/05 06:49:44;;;;;;;9.98;2.08;;;;;;;12.58;100.00;100795.97;6155219;28;20059;-77
2024/04/05 06:52:46;;;;;;;10.02;1.58;;;;;;;12.61;100.00;100795.78;6157692;28;20062;-76
2024/04/05 06:55:47;;;;;;;7.40;1.58;;;;;;;12.58;100.00;100794.19;6159438;28;20047;-77
2024/04/05 06:58:49;;;;;;;13.30;2.05;;;;;;;12.56;100.00;100789.94;6155221;28;20047;-78
2024/04/05 07:01:51;;;;;;;9.60;1.40;;;;;;;12.58;100.00;100794.19;6156036;28;20058;-76
2024/04/05 07:04:52;;;;;;;9.82;3.15;;;;;;;12.51;100.00;100787.59;6164490;28;20054;-75
2024/04/05 07:07:53;;;;;;;13.55;2.17;;;;;;;12.45;100.00;100780.06;6178118;28;20054;-74
2024/04/05 07:10:54;;;;;;;7.47;1.70;;;;;;;12.36;100.00;100778.84;6178930;28;20051;-76
2024/04/05 07:13:57;;;;;;;14.80;2.28;;;;;;;12.36;100.00;100776.19;6163112;28;20066;-80
2024/04/05 07:16:58;;;;;;;11.30;2.05;;;;;;;12.39;100.00;100786.53;6157043;28;20054;-77
2024/04/05 07:20:00;;;;;;;14.50;2.53;;;;;;;12.39;100.00;100785.69;6173094;28;20042;-78
2024/04/05 07:23:01;;;;;;;5.82;1.48;;;;;;;12.39;100.00;100768.09;6168106;28;20082;-78
2024/04/05 07:26:03;;;;;;;11.63;2.40;;;;;;;12.41;100.00;100755.69;6154716;28;20047;-78
2024/04/05 07:29:05;;;;;;;13.13;2.15;;;;;;;12.40;100.00;100746.09;6154827;28;20058;-79
2024/04/05 07:32:07;;;;;;;9.75;2.22;;;;;;;12.45;100.00;100748.44;6154118;28;20713;-78
2024/04/05 07:35:08;;;;;;;13.25;2.17;;;;;;;12.50;100.00;100743.72;6154623;28;20062;-78
2024/04/05 07:38:09;;;;;;;6.38;1.83;;;;;;;12.51;100.00;100737.50;6154442;28;20467;-78
2024/04/05 07:41:10;;;;;;;7.18;1.73;;;;;;;12.58;100.00;100735.34;6163008;28;20051;-77
2024/04/05 07:44:12;;;;;;;7.13;1.90;;;;;;;12.62;100.00;100724.50;6163185;28;20057;-78
2024/04/05 07:47:14;;;;;;;14.20;1.95;;;;;;;12.66;100.00;100714.63;6168260;28;20087;-79
2024/04/05 07:50:15;;;;;;;12.02;2.17;;;;;;;12.72;100.00;100716.88;6154148;28;20486;-78
2024/04/05 07:53:16;;;;;;;11.57;1.92;;;;;;;12.83;100.00;100718.84;6156137;28;20079;-78
2024/04/05 07:56:18;;;;;;;6.95;2.20;;;;;;;12.92;100.00;100729.66;6161179;28;20058;-78
2024/04/05 07:59:21;;;;;;;12.18;2.67;;;;;;;13.07;100.00;100746.28;6168564;28;20371;-79
2024/04/05 08:02:27;;;;;;;9.52;2.17;;;;;;;13.24;100.00;100739.13;6165428;28;20047;-77
2024/04/05 08:05:29;;;;;;;12.57;2.63;;;;;;;13.35;100.00;100733.97;6164872;28;20050;-78
2024/04/05 08:08:29;;;;;;;8.30;2.05;;;;;;;13.39;100.00;100728.41;6161372;28;20047;-79
2024/04/05 08:11:31;;;;;;;5.65;1.73;;;;;;;13.46;100.00;100715.66;6165055;28;20039;-78
2024/04/05 08:14:33;;;;;;;15.23;2.40;;;;;;;13.54;100.00;100705.44;6177394;28;20451;-78
2024/04/05 08:17:34;;;;;;;12.23;2.30;;;;;;;13.65;100.00;100705.56;6160947;28;20138;-78
2024/04/05 08:20:36;;;;;;;15.95;2.55;;;;;;;13.74;100.00;100714.69;6157867;28;20085;-77
2024/04/05 08:23:36;;;;;;;8.10;2.60;;;;;;;13.86;100.00;100715.66;6159406;28;20043;-79
2024/04/05 08:26:38;;;;;;;8.40;2.08;;;;;;;13.96;100.00;100729.94;6161572;28;20055;-80
2024/04/05 08:29:40;;;;;;;11.38;1.88;;;;;;;13.90;100.00;100720.63;6148402;28;20051;-79
2024/04/05 08:32:42;;;;;;;12.05;2.13;;;;;;;13.94;100.00;100727.41;6155849;28;20051;-78
2024/04/05 08:35:51;;;;;;;6.88;2.03;;;;;;;14.01;100.00;100719.88;6154259;28;20368;-78
2024/04/05 08:38:51;;;;;;;8.73;1.77;;;;;;;14.09;100.00;100712.28;6152805;28;20047;-80
2024/04/05 08:42:02;;;;;;;12.63;2.30;;;;;;;14.32;100.00;100704.56;6167662;28;20051;-80
2024/04/05 08:45:06;;;;;;;13.07;2.35;;;;;;;14.32;100.00;100697.47;6176951;28;20467;-80
2024/04/05 08:48:08;;;;;;;9.45;2.65;;;;;;;14.51;100.00;100696.22;6159918;28;20059;-78
2024/04/05 08:51:12;;;;;;;5.15;1.77;;;;;;;14.57;100.00;100695.78;6151733;28;20058;-78
2024/04/05 08:54:13;;;;;;;12.05;1.95;;;;;;;14.67;100.00;100700.34;6164403;28;20462;-80
2024/04/05 08:57:15;;;;;;;11.57;2.13;;;;;;;14.85;100.00;100694.66;6176262;28;20047;-79
2024/04/05 09:00:22;;;;;;;5.10;1.30;;;;;;;14.93;100.00;100693.16;6161880;28;20066;-80
2024/04/05 09:03:24;;;;;;;8.82;1.70;;;;;;;15.05;100.00;100687.94;6162392;28;20436;-79
2024/04/05 09:06:25;;;;;;;7.25;1.33;;;;;;;15.07;100.00;100672.78;6160814;28;20043;-79
2024/04/05 09:09:27;;;;;;;8.90;1.58;;;;;;;15.09;100.00;100668.22;6165927;28;20046;-78
2024/04/05 09:12:32;;;;;;;9.13;1.30;;;;;;;15.18;100.00;100660.44;6163686;28;20071;-78
2024/04/05 09:15:34;;;;;;;4.10;1.38;;;;;;;15.22;100.00;100661.06;6164788;28;20043;-78
2024/04/05 09:18:36;;;;;;;5.03;1.58;;;;;;;15.28;100.00;100665.06;6167023;28;20083;-78
2024/04/05 09:21:42;;;;;;;11.38;2.03;;;;;;;15.41;100.00;100661.38;6167429;28;20050;-77
2024/04/05 09:24:44;;;;;;;8.20;1.50;;;;;;;15.54;100.00;100653.38;6172931;28;20190;-80
2024/04/05 09:27:46;;;;;;;14.57;2.95;;;;;;;15.80;100.00;100639.94;6179243;28;20073;-78
2024/04/05 09:30:57;;;;;;;5.50;1.50;;;;;;;15.81;100.00;100646.97;6170342;28;20075;-77
2024/04/05 09:34:06;;;;;;;10.20;1.55;;;;;;;15.80;100.00;100639.94;6181136;28;20055;-77
2024/04/05 09:37:07;;;;;;;5.32;1.60;;;;;;;15.97;100.00;100637.69;6170256;28;20058;-76
2024/04/05 09:40:10;;;;;;;6.70;1.40;;;;;;;15.92;100.00;100637.19;6168478;28;20396;-77
2024/04/05 09:43:13;;;;;;;3.63;1.10;;;;;;;15.98;100.00;100636.72;6157990;28;20051;-77
2024/04/05 09:46:19;;;;;;;5.65;1.50;;;;;;;16.04;100.00;100639.88;6169513;28;20532;-78
2024/04/05 09:49:20;;;;;;;7.30;1.80;;;;;;;16.06;100.00;100635.28;6165164;28;20058;-77
2024/04/05 09:52:27;;;;;;;4.68;1.20;;;;;;;16.05;100.00;100631.78;6170315;28;20078;-77
2024/04/05 09:55:29;;;;;;;5.78;1.52;;;;;;;16.03;100.00;100632.88;6174931;28;20051;-77
2024/04/05 09:58:30;;;;;;;3.35;0.98;;;;;;;16.01;100.00;100624.19;6160458;28;20052;-78
2024/04/05 10:01:34;;;;;;;5.13;1.20;;;;;;;16.03;100.00;100620.44;6166955;28;20355;-78
2024/04/05 10:04:36;;;;;;;8.52;1.17;;;;;;;16.04;100.00;100619.50;6169514;28;20050;-76
2024/04/05 10:07:37;;;;;;;6.72;1.67;;;;;;;16.05;100.00;100621.19;6168139;28;20054;-76
2024/04/05 10:10:38;;;;;;;3.53;0.90;;;;;;;15.94;100.00;100607.91;6164867;28;20055;-77
2024/04/05 10:13:41;;;;;;;3.53;0.82;;;;;;;15.84;100.00;100617.56;6172457;28;20137;-78
2024/04/05 10:16:42;;;;;;;5.80;1.48;;;;;;;15.87;100.00;100609.38;6172074;28;20046;-78
2024/04/05 10:19:44;;;;;;;4.20;1.45;;;;;;;15.86;100.00;100595.28;6178448;28;20058;-79
2024/04/05 10:22:46;;;;;;;6.70;1.20;;;;;;;15.83;100.00;100597.31;6162420;28;20043;-76
2024/04/05 10:25:47;;;;;;;2.70;0.88;;;;;;;15.70;100.00;100598.25;6163173;28;20356;-76
2024/04/05 10:28:47;;;;;;;2.72;1.00;;;;;;;15.63;100.00;100586.44;6167705;28;20050;-77
2024/04/05 10:32:00;;;;;;;1.48;1.08;;;;;;;15.67;100.00;100579.13;6171827;28;20075;-78
2024/04/05 10:35:07;;;;;;;6.07;1.02;;;;;;;15.71;100.00;100592.03;6165289;28;20058;-78
2024/04/05 10:38:09;;;;;;;3.92;1.05;;;;;;;15.76;100.00;100569.59;6148017;29;20047;-79
2024/04/05 10:41:10;;;;;;;7.25;1.10;;;;;;;15.80;100.00;100565.75;6155524;28;20444;-77
2024/04/05 10:44:11;;;;;;;6.03;1.52;;;;;;;15.80;100.00;100549.84;6185784;23;20070;-82
2024/04/05 10:47:13;;;;;;;7.72;0.90;;;;;;;15.90;100.00;100551.69;6180073;28;20055;-82
2024/04/05 10:50:15;;;;;;;3.65;1.13;;;;;;;16.05;100.00;100543.47;6203489;28;20132;-82
2024/04/05 10:53:17;;;;;;;4.63;0.95;;;;;;;16.14;100.00;100540.94;6203616;28;20477;-83
2024/04/05 10:56:18;;;;;;;2.67;1.00;;;;;;;16.16;100.00;100524.91;6203303;28;20073;-82
2024/04/05 10:59:20;;;;;;;4.07;1.00;;;;;;;16.18;100.00;100505.25;6200774;28;20459;-83
2024/04/05 11:02:22;;;;;;;4.07;0.95;;;;;;;16.39;100.00;100515.06;6198074;28;20054;-79
2024/04/05 11:05:24;;;;;;;2.72;0.77;;;;;;;16.62;100.00;100500.78;6203611;28;20066;-80
2024/04/05 11:08:25;;;;;;;3.58;0.60;;;;;;;16.60;100.00;100496.56;6203152;28;20456;-80
2024/04/05 11:11:27;;;;;;;2.28;0.60;;;;;;;16.58;100.00;100485.22;6202828;28;20057;-80
2024/04/05 11:14:27;;;;;;;4.63;0.85;;;;;;;16.69;100.00;100485.19;6203155;28;20057;-81
2024/04/05 11:17:30;;;;;;;3.50;1.17;;;;;;;16.62;100.00;100487.53;6194890;28;20046;-82
2024/04/05 11:20:31;;;;;;;5.88;1.20;;;;;;;16.61;100.00;100480.50;6200194;28;20043;-81
2024/04/05 11:23:33;;;;;;;2.97;0.95;;;;;;;16.54;100.00;100473.22;6193397;28;20467;-81
2024/04/05 11:26:34;;;;;;;4.75;0.75;;;;;;;16.49;100.00;100471.78;6203599;28;20050;-81
2024/04/05 11:29:35;;;;;;;2.85;0.80;;;;;;;16.57;100.00;100483.56;6203935;28;20068;-81
2024/04/05 11:32:40;;;;;;;5.70;0.77;;;;;;;16.58;100.00;100464.00;6203446;28;20050;-81
2024/04/05 11:35:43;;;;;;;2.63;0.80;;;;;;;16.59;100.00;100461.25;6203705;28;20054;-82
2024/04/05 11:38:44;;;;;;;1.63;1.00;;;;;;;16.63;100.00;100456.53;6200237;28;20057;-82
2024/04/05 11:41:45;;;;;;;10.85;1.25;;;;;;;16.63;100.00;100445.91;6194597;28;20129;-82
2024/04/05 11:44:47;;;;;;;3.20;1.10;;;;;;;16.55;100.00;100432.44;6202977;28;20050;-82
2024/04/05 11:47:50;;;;;;;1.98;0.70;;;;;;;16.43;100.00;100443.09;6199703;28;20093;-81
2024/04/05 11:50:51;;;;;;;3.28;1.02;;;;;;;16.48;100.00;100440.06;6183239;28;20106;-81
2024/04/05 11:53:52;;;;;;;2.53;0.80;;;;;;;16.54;100.00;100446.69;6183433;28;20418;-81
2024/04/05 11:56:52;;;;;;;3.92;0.95;;;;;;;16.38;100.00;100447.94;6193740;28;20370;-82
2024/04/05 11:59:54;;;;;;;5.57;1.05;;;;;;;16.32;100.00;100488.22;6200976;28;20057;-82
2024/04/05 12:02:56;;;;;;;2.45;1.17;;;;;;;16.15;100.00;100508.16;6193799;28;20043;-83
2024/04/05 12:06:00;;;;;;;0.90;0.70;;;;;;;16.13;100.00;100507.44;6202094;28;20454;-83
2024/04/05 12:09:03;;;;;;;4.60;1.05;;;;;;;16.04;100.00;100488.78;6201864;28;20062;-83
2024/04/05 12:12:05;;;;;;;2.03;1.05;;;;;;;15.91;100.00;100500.34;6201933;28;20057;-85
2024/04/05 12:15:07;;;;;;;3.00;0.90;;;;;;;15.97;100.00;100502.50;6201891;28;20066;-80
2024/04/05 12:18:10;;;;;;;6.85;0.95;;;;;;;15.96;100.00;100503.47;6201696;28;20062;-84
2024/04/05 12:21:11;;;;;;;5.72;1.20;;;;;;;16.06;100.00;100500.09;6201600;28;20052;-81
2024/04/05 12:24:12;;;;;;;4.78;1.15;;;;;;;16.16;100.00;100485.13;6187613;28;20047;-83
2024/04/05 12:27:13;;;;;;;3.97;1.38;;;;;;;16.26;100.00;100466.66;6184642;28;20053;-81
2024/04/05 12:30:14;;;;;;;4.20;1.23;;;;;;;16.32;100.00;100468.81;6195418;28;20097;-80
2024/04/05 12:33:17;;;;;;;7.00;1.10;;;;;;;16.27;100.00;100437.38;6199561;28;20124;-83
2024/04/05 12:36:19;;;;;;;3.53;1.13;;;;;;;16.13;100.00;100438.50;6201193;28;20046;-83
2024/04/05 12:39:28;;;;;;;3.50;1.25;;;;;;;16.03;100.00;100439.38;6188149;28;20054;-82
2024/04/05 12:42:28;;;;;;;3.63;1.00;;;;;;;16.03;100.00;100432.25;6173687;28;20104;-83
2024/04/05 12:45:31;;;;;;;4.70;1.20;;;;;;;16.06;100.00;100426.72;6179220;28;20054;-83
2024/04/05 12:48:33;;;;;;;4.72;0.98;;;;;;;16.10;100.00;100425.50;6201144;28;20133;-82
2024/04/05 12:51:34;;;;;;;3.28;0.98;;;;;;;16.00;100.00;100413.97;6202901;28;20050;-82
2024/04/05 12:54:36;;;;;;;1.08;0.98;;;;;;;16.04;100.00;100409.25;6182195;28;20047;-81
2024/04/05 12:57:37;;;;;;;3.88;0.88;;;;;;;16.15;100.00;100410.06;6178864;28;20065;-75
2024/04/05 13:00:39;;;;;;;2.97;1.15;;;;;;;16.14;100.00;100408.38;6183706;28;20438;-77
2024/04/05 13:03:42;;;;;;;5.75;0.90;;;;;;;16.12;100.00;100407.63;6206878;28;20521;-82
2024/04/05 13:06:44;;;;;;;3.85;0.80;;;;;;;16.11;100.00;100410.44;6199847;28;20050;-81
2024/04/05 13:09:45;;;;;;;4.80;0.85;;;;;;;16.05;100.00;100416.25;6201266;28;20504;-80
2024/04/05 13:12:46;;;;;;;4.28;1.13;;;;;;;16.02;100.00;100413.81;6214005;28;20058;-83
2024/04/05 13:15:47;;;;;;;3.03;0.95;;;;;;;16.05;100.00;100413.59;6215401;28;20131;-84
2024/04/05 13:18:52;;;;;;;5.57;0.90;;;;;;;16.02;100.00;100411.19;6199370;28;20473;-83
2024/04/05 13:21:52;;;;;;;1.98;1.08;;;;;;;16.02;100.00;100414.66;6200707;28;20055;-81
2024/04/05 13:24:53;;;;;;;3.92;1.00;;;;;;;16.06;100.00;100423.22;6208110;28;20058;-81
2024/04/05 13:27:54;;;;;;;3.15;1.17;;;;;;;16.05;100.00;100430.34;6200898;28;20374;-81
2024/04/05 13:30:59;;;;;;;3.65;1.05;;;;;;;16.13;100.00;100429.72;6199019;28;20050;-81
2024/04/05 13:34:01;;;;;;;1.27;0.80;;;;;;;16.10;100.00;100422.84;6207619;28;20046;-81
2024/04/05 13:37:03;;;;;;;4.70;0.90;;;;;;;16.08;100.00;100418.63;6206067;28;20447;-81
2024/04/05 13:40:05;;;;;;;3.95;1.48;;;;;;;15.98;100.00;100406.13;6200920;28;20336;-82
2024/04/05 13:43:08;;;;;;;1.35;0.70;;;;;;;16.05;100.00;100408.28;6200236;28;20046;-83
2024/04/05 13:46:11;;;;;;;3.72;1.02;;;;;;;16.05;100.00;100406.47;6200322;28;20046;-85
2024/04/05 13:49:14;;;;;;;4.35;1.35;;;;;;;16.04;100.00;100396.00;6198991;28;20046;-85
2024/04/05 13:52:14;;;;;;;7.97;1.80;;;;;;;16.08;100.00;100400.06;6200500;28;20061;-85